createdAt,value
2019-05-01T00:04:59.635Z,4.17
2019-05-01T00:11:49.711Z,3.47
2019-05-01T00:14:56.366Z,4.77
2019-05-01T00:20:57.844Z,3.67
2019-05-01T00:23:45.687Z,3.10
2019-05-01T00:26:35.484Z,3.13
2019-05-01T00:29:23.591Z,3.93
2019-05-01T00:32:12.692Z,3.80
2019-05-01T00:35:19.455Z,8.70
2019-05-01T00:38:16.417Z,3.17
2019-05-01T00:46:56.832Z,4.00
2019-05-01T00:49:47.221Z,3.73
2019-05-01T00:52:34.664Z,3.63
2019-05-01T00:55:46.946Z,5.60
2019-05-01T01:02:56.932Z,6.57
2019-05-01T01:09:07.601Z,5.87
2019-05-01T01:11:55.526Z,7.33
2019-05-01T01:15:03.621Z,4.90
2019-05-01T01:18:29.924Z,4.13
2019-05-01T01:21:23.865Z,4.43
2019-05-01T01:24:18.063Z,4.60
2019-05-01T01:27:29.515Z,6.17
2019-05-01T01:30:21.140Z,5.90
2019-05-01T01:33:44.784Z,5.10
2019-05-01T01:36:40.282Z,11.07
2019-05-01T01:39:51.037Z,8.53
2019-05-01T01:42:39.860Z,6.20
2019-05-01T01:45:44.496Z,4.43
2019-05-01T01:48:35.494Z,5.60
2019-05-01T01:51:29.874Z,7.70
2019-05-01T01:54:19.540Z,6.87
2019-05-01T01:57:18.623Z,4.73
2019-05-01T02:00:13.998Z,9.20
2019-05-01T02:03:06.550Z,5.30
2019-05-01T02:06:03.605Z,4.97
2019-05-01T02:09:03.393Z,5.07
2019-05-01T02:12:45.027Z,4.73
2019-05-01T02:15:35.944Z,8.40
2019-05-01T02:18:28.683Z,6.53
2019-05-01T02:21:19.171Z,4.50
2019-05-01T02:24:08.304Z,4.37
2019-05-01T02:26:58.714Z,4.37
2019-05-01T02:29:58.197Z,5.60
2019-05-01T02:32:47.114Z,9.57
2019-05-01T02:36:02.514Z,3.03
2019-05-01T02:38:53.681Z,3.33
2019-05-01T02:41:44.000Z,3.83
2019-05-01T02:47:56.978Z,5.67
2019-05-01T02:50:52.816Z,4.10
2019-05-01T02:54:18.042Z,8.67
2019-05-01T02:57:10.732Z,3.30
2019-05-01T03:03:25.891Z,4.37
2019-05-01T03:06:14.215Z,4.57
2019-05-01T03:09:25.077Z,5.73
2019-05-01T03:12:20.678Z,5.30
2019-05-01T03:15:10.602Z,3.87
2019-05-01T03:18:23.964Z,6.20
2019-05-01T03:37:19.557Z,6.70
2019-05-01T03:43:36.856Z,9.53
2019-05-01T03:49:51.563Z,10.47
2019-05-01T03:52:47.131Z,8.70
2019-05-01T03:55:41.165Z,10.57
2019-05-01T03:58:29.309Z,6.50
2019-05-01T04:04:59.105Z,6.07
2019-05-01T04:07:24.919Z,5.43
2019-05-01T04:10:14.693Z,5.37
2019-05-01T04:13:35.885Z,8.40
2019-05-01T04:16:27.607Z,8.17
2019-05-01T04:19:23.844Z,7.63
2019-05-01T04:25:25.411Z,6.00
2019-05-01T04:28:38.546Z,6.70
2019-05-01T04:31:35.503Z,9.13
2019-05-01T04:37:46.541Z,19.67
2019-05-01T04:40:47.742Z,4.13
2019-05-01T04:43:40.207Z,4.57
2019-05-01T04:46:37.666Z,3.80
2019-05-01T04:52:48.837Z,6.03
2019-05-01T04:55:46.580Z,4.60
2019-05-01T05:02:21.391Z,6.03
2019-05-01T05:12:28.608Z,6.43
2019-05-01T05:15:41.534Z,4.13
2019-05-01T05:18:56.584Z,5.50
2019-05-01T05:22:49.078Z,3.57
2019-05-01T05:29:17.102Z,3.60
2019-05-01T05:35:30.310Z,3.30
2019-05-01T05:38:39.730Z,3.97
2019-05-01T05:51:52.846Z,7.00
2019-05-01T05:55:14.955Z,5.43
2019-05-01T06:01:47.095Z,4.47
2019-05-01T06:05:07.870Z,4.53
2019-05-01T06:08:15.252Z,5.60
2019-05-01T06:15:25.966Z,4.43
2019-05-01T06:18:23.707Z,4.50
2019-05-01T06:21:18.402Z,7.30
2019-05-01T06:24:26.505Z,5.00
2019-05-01T06:27:15.092Z,10.17
2019-05-01T06:33:54.998Z,5.83
2019-05-01T06:40:29.347Z,4.77
2019-05-01T06:43:12.389Z,5.07
2019-05-01T06:46:21.945Z,5.73
2019-05-01T06:49:29.331Z,6.80
2019-05-01T06:55:16.016Z,7.13
2019-05-01T06:58:04.407Z,7.10
2019-05-01T07:00:56.424Z,5.47
2019-05-01T07:04:02.965Z,4.20
2019-05-01T07:06:47.327Z,4.67
2019-05-01T07:09:36.000Z,4.10
2019-05-01T07:12:30.041Z,4.87
2019-05-01T07:15:26.823Z,4.03
2019-05-01T07:18:40.593Z,4.80
2019-05-01T07:21:43.864Z,6.50
2019-05-01T07:24:33.155Z,4.73
2019-05-01T07:27:23.823Z,5.23
2019-05-01T07:30:41.671Z,4.83
2019-05-01T07:33:28.190Z,4.57
2019-05-01T07:36:26.448Z,4.47
2019-05-01T07:43:00.932Z,6.27
2019-05-01T07:46:13.829Z,5.90
2019-05-01T07:49:00.388Z,4.27
2019-05-01T07:51:55.556Z,6.27
2019-05-01T07:54:43.579Z,5.23
2019-05-01T07:57:38.742Z,4.77
2019-05-01T08:00:44.760Z,5.17
2019-05-01T08:03:32.241Z,3.70
2019-05-01T08:06:21.435Z,4.33
2019-05-01T08:09:11.232Z,6.93
2019-05-01T08:11:58.537Z,4.27
2019-05-01T08:15:07.496Z,5.70
2019-05-01T08:18:12.100Z,5.43
2019-05-01T08:21:21.193Z,4.57
2019-05-01T08:24:44.989Z,3.97
2019-05-01T08:28:02.466Z,5.23
2019-05-01T08:31:03.778Z,5.63
2019-05-01T08:34:12.633Z,4.67
2019-05-01T08:37:13.047Z,5.93
2019-05-01T08:40:00.845Z,7.90
2019-05-01T08:42:50.695Z,5.43
2019-05-01T08:46:25.340Z,5.83
2019-05-01T08:49:50.657Z,4.67
2019-05-01T08:56:21.932Z,4.10
2019-05-01T09:02:41.802Z,6.20
2019-05-01T09:05:36.798Z,5.70
2019-05-01T09:11:58.804Z,6.53
2019-05-01T09:18:01.067Z,4.50
2019-05-01T09:20:51.149Z,4.97
2019-05-01T09:23:41.326Z,4.87
2019-05-01T09:33:46.634Z,5.27
2019-05-01T09:36:34.745Z,3.93
2019-05-01T09:39:22.948Z,4.80
2019-05-01T09:42:10.515Z,4.83
2019-05-01T09:51:47.528Z,4.97
2019-05-01T10:01:12.638Z,6.07
2019-05-01T10:04:12.057Z,4.90
2019-05-01T10:07:02.204Z,6.50
2019-05-01T10:09:52.144Z,5.83
2019-05-01T10:12:41.788Z,4.80
2019-05-01T10:15:29.141Z,4.87
2019-05-01T10:18:20.779Z,4.63
2019-05-01T10:21:11.703Z,5.23
2019-05-01T10:27:13.891Z,5.37
2019-05-01T10:30:19.283Z,4.40
2019-05-01T10:33:15.605Z,8.73
2019-05-01T10:36:25.204Z,4.50
2019-05-01T10:42:31.667Z,5.10
2019-05-01T10:45:19.052Z,4.70
2019-05-01T10:49:13.142Z,6.27
2019-05-01T10:51:59.814Z,5.63
2019-05-01T10:54:48.256Z,6.17
2019-05-01T10:57:42.115Z,7.53
2019-05-01T11:00:32.530Z,7.00
2019-05-01T11:03:27.688Z,6.43
2019-05-01T11:06:22.514Z,5.63
2019-05-01T11:15:23.343Z,5.50
2019-05-01T11:21:44.088Z,6.13
2019-05-01T11:24:34.921Z,8.37
2019-05-01T11:27:44.829Z,5.90
2019-05-01T11:33:58.044Z,9.43
2019-05-01T11:37:25.043Z,6.33
2019-05-01T11:40:22.215Z,7.13
2019-05-01T11:43:10.456Z,10.17
2019-05-01T11:46:00.243Z,9.57
2019-05-01T11:52:31.091Z,9.07
2019-05-01T11:55:20.914Z,10.27
2019-05-01T11:58:18.915Z,6.70
2019-05-01T12:01:08.104Z,7.70
2019-05-01T12:04:10.775Z,8.67
2019-05-01T12:07:09.267Z,7.70
2019-05-01T12:09:57.913Z,7.93
2019-05-01T12:12:46.271Z,9.63
2019-05-01T12:15:42.415Z,5.93
2019-05-01T12:24:59.727Z,7.37
2019-05-01T12:28:21.988Z,7.03
2019-05-01T12:39:01.044Z,7.13
2019-05-01T12:44:38.140Z,10.33
2019-05-01T12:47:45.620Z,14.93
2019-05-01T12:54:11.904Z,9.00
2019-05-01T12:57:02.835Z,7.97
2019-05-01T13:00:08.391Z,14.97
2019-05-01T13:02:52.775Z,7.80
2019-05-01T13:05:45.786Z,11.63
2019-05-01T13:08:33.961Z,8.00
2019-05-01T13:14:36.245Z,9.90
2019-05-01T13:17:58.561Z,11.23
2019-05-01T13:23:52.327Z,9.30
2019-05-01T13:26:54.172Z,8.67
2019-05-01T13:29:51.081Z,7.50
2019-05-01T13:39:09.744Z,8.27
2019-05-01T13:42:23.460Z,9.87
2019-05-01T13:45:45.161Z,8.43
2019-05-01T13:48:56.522Z,7.77
2019-05-01T13:54:44.253Z,9.77
2019-05-01T13:58:04.418Z,6.90
2019-05-01T14:01:13.834Z,7.87
2019-05-01T14:07:16.253Z,7.73
2019-05-01T14:10:24.466Z,6.63
2019-05-01T14:13:14.974Z,10.07
2019-05-01T14:16:07.615Z,7.00
2019-05-01T14:22:53.875Z,6.90
2019-05-01T14:25:59.568Z,6.27
2019-05-01T14:29:22.032Z,6.03
2019-05-01T14:32:13.221Z,6.03
2019-05-01T14:35:01.984Z,5.97
2019-05-01T14:37:51.009Z,6.70
2019-05-01T14:47:33.827Z,5.50
2019-05-01T14:53:52.386Z,8.53
2019-05-01T14:56:50.728Z,6.87
2019-05-01T14:59:38.527Z,5.50
2019-05-01T15:02:36.104Z,7.90
2019-05-01T15:05:24.437Z,7.00
2019-05-01T15:08:15.821Z,8.77
2019-05-01T15:11:10.749Z,5.93
2019-05-01T15:14:34.172Z,8.47
2019-05-01T15:17:28.757Z,5.30
2019-05-01T15:20:58.504Z,6.13
2019-05-01T15:26:50.653Z,5.73
2019-05-01T15:29:45.555Z,5.20
2019-05-01T15:32:34.899Z,5.17
2019-05-01T15:43:22.584Z,5.90
2019-05-01T15:46:51.154Z,7.93
2019-05-01T15:50:01.782Z,5.83
2019-05-01T15:52:49.492Z,4.77
2019-05-01T15:56:25.537Z,6.13
2019-05-01T16:02:38.036Z,5.60
2019-05-01T16:05:35.124Z,5.60
2019-05-01T16:08:24.990Z,7.53
2019-05-01T16:11:23.708Z,5.03
2019-05-01T16:14:32.202Z,5.20
2019-05-01T16:17:25.852Z,5.83
2019-05-01T16:26:42.448Z,8.00
2019-05-01T16:29:32.441Z,4.80
2019-05-01T16:32:21.192Z,6.03
2019-05-01T16:38:35.842Z,5.90
2019-05-01T16:41:25.399Z,5.33
2019-05-01T16:44:18.447Z,5.57
2019-05-01T16:47:09.956Z,9.53
2019-05-01T16:50:04.939Z,5.30
2019-05-01T16:53:15.052Z,5.73
2019-05-01T16:56:06.193Z,5.57
2019-05-01T17:03:10.041Z,6.50
2019-05-01T17:06:20.569Z,5.60
2019-05-01T17:15:42.197Z,5.43
2019-05-01T17:18:33.099Z,6.00
2019-05-01T17:21:21.032Z,5.50
2019-05-01T17:24:11.545Z,6.23
2019-05-01T17:27:05.458Z,5.97
2019-05-01T17:29:53.615Z,6.40
2019-05-01T17:32:47.889Z,5.97
2019-05-01T17:35:41.826Z,6.73
2019-05-01T17:38:33.878Z,6.23
2019-05-01T17:41:22.696Z,6.70
2019-05-01T17:44:11.934Z,7.37
2019-05-01T17:46:59.851Z,7.10
2019-05-01T17:49:48.462Z,6.47
2019-05-01T17:52:45.599Z,8.00
2019-05-01T17:55:38.646Z,7.20
2019-05-01T17:58:31.888Z,6.97
2019-05-01T18:01:55.427Z,6.40
2019-05-01T18:05:04.115Z,6.57
2019-05-01T18:07:52.438Z,6.77
2019-05-01T18:10:43.989Z,7.57
2019-05-01T18:13:43.890Z,9.97
2019-05-01T18:16:34.665Z,7.30
2019-05-01T18:19:26.092Z,7.50
2019-05-01T18:22:37.295Z,6.80
2019-05-01T18:29:05.815Z,9.53
2019-05-01T18:31:56.607Z,10.03
2019-05-01T18:35:08.916Z,9.17
2019-05-01T18:38:11.610Z,6.77
2019-05-01T18:41:36.019Z,8.27
2019-05-01T18:44:31.726Z,8.50
2019-05-01T18:47:21.021Z,9.70
2019-05-01T18:50:13.533Z,8.30
2019-05-01T18:53:11.397Z,7.87
2019-05-01T18:56:01.438Z,7.73
2019-05-01T18:58:52.648Z,7.23
2019-05-01T19:04:52.337Z,7.20
2019-05-01T19:07:53.795Z,7.73
2019-05-01T19:10:44.664Z,7.33
2019-05-01T19:13:34.956Z,7.83
2019-05-01T19:16:29.429Z,8.10
2019-05-01T19:19:20.858Z,7.73
2019-05-01T19:22:44.401Z,6.57
2019-05-01T19:25:35.293Z,7.40
2019-05-01T19:28:42.037Z,8.60
2019-05-01T19:35:04.608Z,7.23
2019-05-01T19:37:57.425Z,7.03
2019-05-01T19:40:46.706Z,6.53
2019-05-01T19:43:40.336Z,7.13
2019-05-01T19:46:50.268Z,6.95
2019-05-01T19:49:39.124Z,6.97
2019-05-01T19:52:32.377Z,6.60
2019-05-01T19:55:44.883Z,8.17
2019-05-01T19:58:58.988Z,10.63
2019-05-01T20:02:06.052Z,10.33
2019-05-01T20:04:53.882Z,8.67
2019-05-01T20:07:44.572Z,8.03
2019-05-01T20:10:54.398Z,9.57
2019-05-01T20:17:44.829Z,9.43
2019-05-01T20:20:33.095Z,7.53
2019-05-01T20:26:41.599Z,9.03
2019-05-01T20:29:36.794Z,11.93
2019-05-01T20:32:31.581Z,8.53
2019-05-01T20:35:40.796Z,11.60
2019-05-01T20:38:32.020Z,12.00
2019-05-01T20:41:24.835Z,10.47
2019-05-01T20:44:23.432Z,9.40
2019-05-01T20:47:06.293Z,10.63
2019-05-01T20:49:59.368Z,11.07
2019-05-01T20:52:48.561Z,10.20
2019-05-01T21:02:55.772Z,11.70
2019-05-01T21:06:02.910Z,11.53
2019-05-01T21:08:53.733Z,12.50
2019-05-01T21:11:47.412Z,19.57
2019-05-01T21:14:50.960Z,13.87
2019-05-01T21:21:08.386Z,13.90
2019-05-01T21:24:14.428Z,17.13
2019-05-01T21:30:38.717Z,14.07
2019-05-01T21:33:24.888Z,14.33
2019-05-01T21:36:14.549Z,15.10
2019-05-01T21:39:27.082Z,15.43
2019-05-01T21:42:18.832Z,15.97
2019-05-01T21:45:26.840Z,15.50
2019-05-01T21:48:15.470Z,15.57
2019-05-01T21:51:07.137Z,16.87
2019-05-01T21:53:53.000Z,14.83
2019-05-01T21:56:45.003Z,13.57
2019-05-01T21:59:39.795Z,14.57
2019-05-01T22:02:32.536Z,14.33
2019-05-01T22:05:39.519Z,14.07
2019-05-01T22:11:08.288Z,13.57
2019-05-01T22:14:01.748Z,13.80
2019-05-01T22:16:53.183Z,13.33
2019-05-01T22:19:52.654Z,12.80
2019-05-01T22:30:47.563Z,12.57
2019-05-01T22:33:39.294Z,12.70
2019-05-01T22:36:27.943Z,12.17
2019-05-01T22:39:41.452Z,11.60
2019-05-01T22:42:58.751Z,11.40
2019-05-01T22:45:50.261Z,11.00
2019-05-01T22:48:58.254Z,11.80
2019-05-01T22:55:20.460Z,11.57
2019-05-01T22:58:17.092Z,11.47
2019-05-01T23:01:39.046Z,11.77
2019-05-01T23:04:37.664Z,11.40
2019-05-01T23:13:54.444Z,11.37
2019-05-01T23:20:21.796Z,11.00
2019-05-01T23:23:12.794Z,11.33
2019-05-01T23:26:07.278Z,11.00
2019-05-01T23:28:55.716Z,11.40
2019-05-01T23:35:24.485Z,11.07
2019-05-01T23:38:19.216Z,12.60
2019-05-01T23:41:24.802Z,11.50
2019-05-01T23:44:10.988Z,10.57
2019-05-01T23:47:09.049Z,12.23
2019-05-01T23:50:37.397Z,11.67
2019-05-01T23:53:18.777Z,12.60
2019-05-01T23:56:10.185Z,12.80
